sensor_id;sensor_type;location;lat;lon;timestamp;P1;durP1;ratioP1;P2;durP2;ratioP2
59830;SDS011;45711;50.108;13.712;2023-08-31T00:01:35;5.78;;;3.95;;
59830;SDS011;45711;50.108;13.712;2023-08-31T00:04:00;3.78;;;3.30;;
59830;SDS011;45711;50.108;13.712;2023-08-31T00:06:27;5.80;;;3.40;;
59830;SDS011;45711;50.108;13.712;2023-08-31T00:08:53;5.28;;;3.80;;
59830;SDS011;45711;50.108;13.712;2023-08-31T00:11:18;3.55;;;3.25;;
59830;SDS011;45711;50.108;13.712;2023-08-31T00:13:45;7.35;;;3.95;;
59830;SDS011;45711;50.108;13.712;2023-08-31T00:16:11;9.55;;;3.42;;
59830;SDS011;45711;50.108;13.712;2023-08-31T00:18:37;4.18;;;3.42;;
59830;SDS011;45711;50.108;13.712;2023-08-31T00:21:03;10.43;;;3.70;;
59830;SDS011;45711;50.108;13.712;2023-08-31T00:23:31;6.28;;;3.50;;
59830;SDS011;45711;50.108;13.712;2023-08-31T00:25:56;4.30;;;3.58;;
59830;SDS011;45711;50.108;13.712;2023-08-31T00:28:22;4.88;;;2.95;;
59830;SDS011;45711;50.108;13.712;2023-08-31T00:30:48;4.85;;;3.20;;
59830;SDS011;45711;50.108;13.712;2023-08-31T00:33:14;6.90;;;3.30;;
59830;SDS011;45711;50.108;13.712;2023-08-31T00:35:40;4.47;;;2.58;;
59830;SDS011;45711;50.108;13.712;2023-08-31T00:38:10;7.03;;;3.03;;
59830;SDS011;45711;50.108;13.712;2023-08-31T00:40:39;3.75;;;2.70;;
59830;SDS011;45711;50.108;13.712;2023-08-31T00:43:07;5.50;;;3.20;;
59830;SDS011;45711;50.108;13.712;2023-08-31T00:45:33;3.95;;;3.10;;
59830;SDS011;45711;50.108;13.712;2023-08-31T00:47:59;7.05;;;3.30;;
59830;SDS011;45711;50.108;13.712;2023-08-31T00:50:25;5.53;;;3.30;;
59830;SDS011;45711;50.108;13.712;2023-08-31T00:52:51;6.60;;;3.45;;
59830;SDS011;45711;50.108;13.712;2023-08-31T00:55:17;8.95;;;3.20;;
59830;SDS011;45711;50.108;13.712;2023-08-31T00:57:44;3.40;;;2.88;;
59830;SDS011;45711;50.108;13.712;2023-08-31T01:00:10;5.90;;;3.50;;
59830;SDS011;45711;50.108;13.712;2023-08-31T01:02:40;4.07;;;2.22;;
59830;SDS011;45711;50.108;13.712;2023-08-31T01:05:18;4.93;;;3.40;;
59830;SDS011;45711;50.108;13.712;2023-08-31T01:07:57;2.97;;;2.40;;
59830;SDS011;45711;50.108;13.712;2023-08-31T01:10:29;6.22;;;2.33;;
59830;SDS011;45711;50.108;13.712;2023-08-31T01:13:03;3.33;;;2.97;;
59830;SDS011;45711;50.108;13.712;2023-08-31T01:15:38;5.55;;;3.10;;
59830;SDS011;45711;50.108;13.712;2023-08-31T01:18:06;5.60;;;2.92;;
59830;SDS011;45711;50.108;13.712;2023-08-31T01:20:37;7.43;;;3.40;;
59830;SDS011;45711;50.108;13.712;2023-08-31T01:23:18;5.03;;;2.95;;
59830;SDS011;45711;50.108;13.712;2023-08-31T01:25:46;3.35;;;2.60;;
59830;SDS011;45711;50.108;13.712;2023-08-31T01:28:13;3.95;;;2.30;;
59830;SDS011;45711;50.108;13.712;2023-08-31T01:30:39;3.88;;;2.20;;
59830;SDS011;45711;50.108;13.712;2023-08-31T01:33:05;4.75;;;3.20;;
59830;SDS011;45711;50.108;13.712;2023-08-31T01:35:33;2.63;;;2.00;;
59830;SDS011;45711;50.108;13.712;2023-08-31T01:38:03;3.30;;;3.00;;
59830;SDS011;45711;50.108;13.712;2023-08-31T01:40:34;5.05;;;3.10;;
59830;SDS011;45711;50.108;13.712;2023-08-31T01:43:04;5.75;;;2.90;;
59830;SDS011;45711;50.108;13.712;2023-08-31T01:45:32;5.55;;;2.65;;
59830;SDS011;45711;50.108;13.712;2023-08-31T01:48:03;5.47;;;3.00;;
59830;SDS011;45711;50.108;13.712;2023-08-31T01:50:29;2.42;;;1.95;;
59830;SDS011;45711;50.108;13.712;2023-08-31T01:52:54;3.22;;;2.42;;
59830;SDS011;45711;50.108;13.712;2023-08-31T01:55:20;3.60;;;2.67;;
59830;SDS011;45711;50.108;13.712;2023-08-31T01:57:46;3.35;;;2.50;;
59830;SDS011;45711;50.108;13.712;2023-08-31T02:00:14;3.97;;;2.83;;
59830;SDS011;45711;50.108;13.712;2023-08-31T02:02:41;4.15;;;2.88;;
59830;SDS011;45711;50.108;13.712;2023-08-31T02:05:07;3.45;;;2.88;;
59830;SDS011;45711;50.108;13.712;2023-08-31T02:07:34;3.63;;;3.03;;
59830;SDS011;45711;50.108;13.712;2023-08-31T02:09:59;4.45;;;3.15;;
59830;SDS011;45711;50.108;13.712;2023-08-31T02:12:25;3.58;;;2.97;;
59830;SDS011;45711;50.108;13.712;2023-08-31T02:14:50;5.22;;;3.17;;
59830;SDS011;45711;50.108;13.712;2023-08-31T02:17:17;4.00;;;3.10;;
59830;SDS011;45711;50.108;13.712;2023-08-31T02:19:44;3.72;;;3.05;;
59830;SDS011;45711;50.108;13.712;2023-08-31T02:22:10;6.30;;;3.08;;
59830;SDS011;45711;50.108;13.712;2023-08-31T02:24:35;7.95;;;3.28;;
59830;SDS011;45711;50.108;13.712;2023-08-31T02:27:01;5.60;;;3.40;;
59830;SDS011;45711;50.108;13.712;2023-08-31T02:29:27;4.57;;;3.25;;
59830;SDS011;45711;50.108;13.712;2023-08-31T02:31:53;6.35;;;3.30;;
59830;SDS011;45711;50.108;13.712;2023-08-31T02:34:20;3.72;;;2.78;;
59830;SDS011;45711;50.108;13.712;2023-08-31T02:36:45;5.70;;;2.95;;
59830;SDS011;45711;50.108;13.712;2023-08-31T02:39:11;6.55;;;2.72;;
59830;SDS011;45711;50.108;13.712;2023-08-31T02:41:37;3.95;;;2.70;;
59830;SDS011;45711;50.108;13.712;2023-08-31T02:44:03;5.05;;;2.80;;
59830;SDS011;45711;50.108;13.712;2023-08-31T02:46:29;4.18;;;2.90;;
59830;SDS011;45711;50.108;13.712;2023-08-31T02:48:54;5.05;;;2.85;;
59830;SDS011;45711;50.108;13.712;2023-08-31T02:51:22;4.43;;;3.20;;
59830;SDS011;45711;50.108;13.712;2023-08-31T02:53:48;3.65;;;3.30;;
59830;SDS011;45711;50.108;13.712;2023-08-31T02:56:14;3.40;;;2.70;;
59830;SDS011;45711;50.108;13.712;2023-08-31T02:58:39;4.10;;;3.13;;
59830;SDS011;45711;50.108;13.712;2023-08-31T03:01:06;4.85;;;2.90;;
59830;SDS011;45711;50.108;13.712;2023-08-31T03:03:33;4.80;;;3.17;;
59830;SDS011;45711;50.108;13.712;2023-08-31T03:05:58;7.10;;;2.90;;
59830;SDS011;45711;50.108;13.712;2023-08-31T03:08:25;4.15;;;3.00;;
59830;SDS011;45711;50.108;13.712;2023-08-31T03:10:51;10.07;;;4.05;;
59830;SDS011;45711;50.108;13.712;2023-08-31T03:13:18;2.75;;;2.20;;
59830;SDS011;45711;50.108;13.712;2023-08-31T03:15:43;2.85;;;2.50;;
59830;SDS011;45711;50.108;13.712;2023-08-31T03:18:09;3.08;;;2.47;;
59830;SDS011;45711;50.108;13.712;2023-08-31T03:20:34;3.50;;;2.72;;
59830;SDS011;45711;50.108;13.712;2023-08-31T03:23:00;5.53;;;3.00;;
59830;SDS011;45711;50.108;13.712;2023-08-31T03:25:28;3.92;;;2.80;;
59830;SDS011;45711;50.108;13.712;2023-08-31T03:27:54;5.22;;;3.05;;
59830;SDS011;45711;50.108;13.712;2023-08-31T03:30:19;5.47;;;3.33;;
59830;SDS011;45711;50.108;13.712;2023-08-31T03:32:45;5.28;;;3.15;;
59830;SDS011;45711;50.108;13.712;2023-08-31T03:35:11;5.25;;;2.90;;
59830;SDS011;45711;50.108;13.712;2023-08-31T03:37:36;5.78;;;2.80;;
59830;SDS011;45711;50.108;13.712;2023-08-31T03:40:02;2.53;;;2.13;;
59830;SDS011;45711;50.108;13.712;2023-08-31T03:42:32;4.55;;;2.60;;
59830;SDS011;45711;50.108;13.712;2023-08-31T03:44:58;2.72;;;2.10;;
59830;SDS011;45711;50.108;13.712;2023-08-31T03:47:24;3.42;;;2.53;;
59830;SDS011;45711;50.108;13.712;2023-08-31T03:49:50;3.55;;;2.00;;
59830;SDS011;45711;50.108;13.712;2023-08-31T03:52:15;4.50;;;2.53;;
59830;SDS011;45711;50.108;13.712;2023-08-31T03:54:41;2.80;;;2.40;;
59830;SDS011;45711;50.108;13.712;2023-08-31T03:57:06;3.10;;;2.33;;
59830;SDS011;45711;50.108;13.712;2023-08-31T03:59:33;2.60;;;2.40;;
59830;SDS011;45711;50.108;13.712;2023-08-31T04:01:59;6.22;;;2.65;;
59830;SDS011;45711;50.108;13.712;2023-08-31T04:04:25;3.55;;;2.60;;
59830;SDS011;45711;50.108;13.712;2023-08-31T04:06:50;2.67;;;2.47;;
59830;SDS011;45711;50.108;13.712;2023-08-31T04:09:16;3.30;;;2.20;;
59830;SDS011;45711;50.108;13.712;2023-08-31T04:11:42;8.93;;;2.67;;
59830;SDS011;45711;50.108;13.712;2023-08-31T04:14:07;3.67;;;2.63;;
59830;SDS011;45711;50.108;13.712;2023-08-31T04:16:34;5.47;;;2.17;;
59830;SDS011;45711;50.108;13.712;2023-08-31T04:19:00;6.90;;;2.90;;
59830;SDS011;45711;50.108;13.712;2023-08-31T04:21:25;2.33;;;1.70;;
59830;SDS011;45711;50.108;13.712;2023-08-31T04:23:51;3.60;;;2.08;;
59830;SDS011;45711;50.108;13.712;2023-08-31T04:26:17;2.97;;;2.10;;
59830;SDS011;45711;50.108;13.712;2023-08-31T04:28:43;3.28;;;2.10;;
59830;SDS011;45711;50.108;13.712;2023-08-31T04:31:08;3.50;;;1.95;;
59830;SDS011;45711;50.108;13.712;2023-08-31T04:33:37;2.03;;;1.60;;
59830;SDS011;45711;50.108;13.712;2023-08-31T04:36:03;2.05;;;1.80;;
59830;SDS011;45711;50.108;13.712;2023-08-31T04:38:30;2.72;;;1.85;;
59830;SDS011;45711;50.108;13.712;2023-08-31T04:40:57;3.88;;;1.90;;
59830;SDS011;45711;50.108;13.712;2023-08-31T04:43:23;2.60;;;1.80;;
59830;SDS011;45711;50.108;13.712;2023-08-31T04:45:48;3.53;;;1.98;;
59830;SDS011;45711;50.108;13.712;2023-08-31T04:48:16;2.05;;;1.77;;
59830;SDS011;45711;50.108;13.712;2023-08-31T04:50:43;1.98;;;1.70;;
59830;SDS011;45711;50.108;13.712;2023-08-31T04:53:08;2.50;;;1.70;;
59830;SDS011;45711;50.108;13.712;2023-08-31T04:55:34;2.50;;;1.77;;
59830;SDS011;45711;50.108;13.712;2023-08-31T04:57:59;3.53;;;1.67;;
59830;SDS011;45711;50.108;13.712;2023-08-31T05:00:25;2.75;;;1.80;;
59830;SDS011;45711;50.108;13.712;2023-08-31T05:02:51;3.95;;;1.80;;
59830;SDS011;45711;50.108;13.712;2023-08-31T05:05:17;3.58;;;1.85;;
59830;SDS011;45711;50.108;13.712;2023-08-31T05:07:45;2.30;;;1.77;;
59830;SDS011;45711;50.108;13.712;2023-08-31T05:10:19;2.80;;;1.70;;
59830;SDS011;45711;50.108;13.712;2023-08-31T05:12:45;2.75;;;1.85;;
59830;SDS011;45711;50.108;13.712;2023-08-31T05:15:10;4.07;;;1.70;;
59830;SDS011;45711;50.108;13.712;2023-08-31T05:17:37;4.18;;;1.73;;
59830;SDS011;45711;50.108;13.712;2023-08-31T05:20:02;3.90;;;1.70;;
59830;SDS011;45711;50.108;13.712;2023-08-31T05:22:29;7.30;;;2.78;;
59830;SDS011;45711;50.108;13.712;2023-08-31T05:24:56;7.53;;;3.15;;
59830;SDS011;45711;50.108;13.712;2023-08-31T05:27:22;5.30;;;2.50;;
59830;SDS011;45711;50.108;13.712;2023-08-31T05:29:48;5.13;;;2.45;;
59830;SDS011;45711;50.108;13.712;2023-08-31T05:32:14;4.38;;;2.53;;
59830;SDS011;45711;50.108;13.712;2023-08-31T05:34:40;3.13;;;2.10;;
59830;SDS011;45711;50.108;13.712;2023-08-31T05:37:05;5.65;;;2.15;;
59830;SDS011;45711;50.108;13.712;2023-08-31T05:39:31;3.00;;;2.22;;
59830;SDS011;45711;50.108;13.712;2023-08-31T05:42:00;3.72;;;2.00;;
59830;SDS011;45711;50.108;13.712;2023-08-31T05:44:26;4.63;;;2.08;;
59830;SDS011;45711;50.108;13.712;2023-08-31T05:46:58;2.00;;;1.50;;
59830;SDS011;45711;50.108;13.712;2023-08-31T05:49:23;4.68;;;1.95;;
59830;SDS011;45711;50.108;13.712;2023-08-31T05:51:49;2.67;;;1.80;;
59830;SDS011;45711;50.108;13.712;2023-08-31T05:54:15;2.78;;;1.80;;
59830;SDS011;45711;50.108;13.712;2023-08-31T05:56:41;2.92;;;1.60;;
59830;SDS011;45711;50.108;13.712;2023-08-31T05:59:08;5.22;;;1.50;;
59830;SDS011;45711;50.108;13.712;2023-08-31T06:01:34;2.78;;;1.65;;
59830;SDS011;45711;50.108;13.712;2023-08-31T06:03:59;1.90;;;1.17;;
59830;SDS011;45711;50.108;13.712;2023-08-31T06:06:25;3.13;;;1.50;;
59830;SDS011;45711;50.108;13.712;2023-08-31T06:08:50;3.90;;;1.80;;
59830;SDS011;45711;50.108;13.712;2023-08-31T06:11:16;3.28;;;1.60;;
59830;SDS011;45711;50.108;13.712;2023-08-31T06:13:42;2.30;;;1.45;;
59830;SDS011;45711;50.108;13.712;2023-08-31T06:16:09;3.60;;;1.50;;
59830;SDS011;45711;50.108;13.712;2023-08-31T06:18:35;1.98;;;1.35;;
59830;SDS011;45711;50.108;13.712;2023-08-31T06:21:00;3.38;;;1.55;;
59830;SDS011;45711;50.108;13.712;2023-08-31T06:23:26;3.40;;;1.35;;
59830;SDS011;45711;50.108;13.712;2023-08-31T06:25:51;2.83;;;1.70;;
59830;SDS011;45711;50.108;13.712;2023-08-31T06:28:17;3.50;;;1.73;;
59830;SDS011;45711;50.108;13.712;2023-08-31T06:30:42;2.53;;;1.33;;
59830;SDS011;45711;50.108;13.712;2023-08-31T06:33:15;1.85;;;1.30;;
59830;SDS011;45711;50.108;13.712;2023-08-31T06:35:42;4.43;;;1.20;;
59830;SDS011;45711;50.108;13.712;2023-08-31T06:38:11;2.53;;;1.08;;
59830;SDS011;45711;50.108;13.712;2023-08-31T06:40:37;4.28;;;1.10;;
59830;SDS011;45711;50.108;13.712;2023-08-31T06:43:03;2.08;;;1.25;;
59830;SDS011;45711;50.108;13.712;2023-08-31T06:45:29;1.75;;;0.90;;
59830;SDS011;45711;50.108;13.712;2023-08-31T06:47:54;1.42;;;1.20;;
59830;SDS011;45711;50.108;13.712;2023-08-31T06:50:21;2.10;;;0.95;;
59830;SDS011;45711;50.108;13.712;2023-08-31T06:52:47;2.17;;;1.17;;
59830;SDS011;45711;50.108;13.712;2023-08-31T06:55:12;1.33;;;0.93;;
59830;SDS011;45711;50.108;13.712;2023-08-31T06:57:38;2.08;;;1.15;;
59830;SDS011;45711;50.108;13.712;2023-08-31T07:00:04;1.05;;;0.95;;
59830;SDS011;45711;50.108;13.712;2023-08-31T07:02:33;3.45;;;1.10;;
59830;SDS011;45711;50.108;13.712;2023-08-31T07:04:59;1.88;;;0.90;;
59830;SDS011;45711;50.108;13.712;2023-08-31T07:07:27;2.45;;;1.58;;
59830;SDS011;45711;50.108;13.712;2023-08-31T07:09:52;2.30;;;1.00;;
59830;SDS011;45711;50.108;13.712;2023-08-31T07:12:19;2.58;;;1.10;;
59830;SDS011;45711;50.108;13.712;2023-08-31T07:14:45;4.43;;;1.35;;
59830;SDS011;45711;50.108;13.712;2023-08-31T07:17:10;1.77;;;0.90;;
59830;SDS011;45711;50.108;13.712;2023-08-31T07:19:36;3.35;;;1.10;;
59830;SDS011;45711;50.108;13.712;2023-08-31T07:22:02;2.53;;;1.27;;
59830;SDS011;45711;50.108;13.712;2023-08-31T07:24:30;4.03;;;1.20;;
59830;SDS011;45711;50.108;13.712;2023-08-31T07:26:56;3.15;;;1.10;;
59830;SDS011;45711;50.108;13.712;2023-08-31T07:29:21;5.82;;;1.20;;
59830;SDS011;45711;50.108;13.712;2023-08-31T07:31:47;2.35;;;1.10;;
59830;SDS011;45711;50.108;13.712;2023-08-31T07:34:12;2.13;;;1.20;;
59830;SDS011;45711;50.108;13.712;2023-08-31T07:36:38;2.17;;;1.10;;
59830;SDS011;45711;50.108;13.712;2023-08-31T07:39:04;3.80;;;1.13;;
59830;SDS011;45711;50.108;13.712;2023-08-31T07:41:31;3.28;;;1.00;;
59830;SDS011;45711;50.108;13.712;2023-08-31T07:43:57;5.82;;;1.10;;
59830;SDS011;45711;50.108;13.712;2023-08-31T07:46:23;2.08;;;1.00;;
59830;SDS011;45711;50.108;13.712;2023-08-31T07:48:49;2.70;;;1.25;;
59830;SDS011;45711;50.108;13.712;2023-08-31T07:51:15;5.63;;;1.17;;
59830;SDS011;45711;50.108;13.712;2023-08-31T07:53:41;1.50;;;1.00;;
59830;SDS011;45711;50.108;13.712;2023-08-31T07:56:06;4.47;;;1.20;;
59830;SDS011;45711;50.108;13.712;2023-08-31T07:58:33;1.02;;;0.73;;
59830;SDS011;45711;50.108;13.712;2023-08-31T08:00:59;4.97;;;1.30;;
59830;SDS011;45711;50.108;13.712;2023-08-31T08:03:25;2.13;;;1.00;;
59830;SDS011;45711;50.108;13.712;2023-08-31T08:05:50;4.63;;;1.08;;
59830;SDS011;45711;50.108;13.712;2023-08-31T08:08:16;3.45;;;1.17;;
59830;SDS011;45711;50.108;13.712;2023-08-31T08:10:42;5.97;;;1.13;;
59830;SDS011;45711;50.108;13.712;2023-08-31T08:13:08;3.70;;;1.40;;
59830;SDS011;45711;50.108;13.712;2023-08-31T08:15:35;2.47;;;1.38;;
59830;SDS011;45711;50.108;13.712;2023-08-31T08:18:01;2.40;;;0.95;;
59830;SDS011;45711;50.108;13.712;2023-08-31T08:20:26;4.88;;;1.00;;
59830;SDS011;45711;50.108;13.712;2023-08-31T08:22:53;2.25;;;1.13;;
59830;SDS011;45711;50.108;13.712;2023-08-31T08:25:19;3.75;;;1.10;;
59830;SDS011;45711;50.108;13.712;2023-08-31T08:27:44;2.55;;;1.30;;
59830;SDS011;45711;50.108;13.712;2023-08-31T08:30:10;2.55;;;1.05;;
59830;SDS011;45711;50.108;13.712;2023-08-31T08:32:37;3.65;;;1.35;;
59830;SDS011;45711;50.108;13.712;2023-08-31T08:35:03;2.45;;;1.10;;
59830;SDS011;45711;50.108;13.712;2023-08-31T08:37:29;2.78;;;1.25;;
59830;SDS011;45711;50.108;13.712;2023-08-31T08:39:58;1.40;;;1.08;;
59830;SDS011;45711;50.108;13.712;2023-08-31T08:42:24;2.58;;;1.20;;
59830;SDS011;45711;50.108;13.712;2023-08-31T08:44:50;1.67;;;1.00;;
59830;SDS011;45711;50.108;13.712;2023-08-31T08:47:16;1.58;;;1.00;;
59830;SDS011;45711;50.108;13.712;2023-08-31T08:49:44;4.57;;;1.42;;
59830;SDS011;45711;50.108;13.712;2023-08-31T08:52:10;2.13;;;1.10;;
59830;SDS011;45711;50.108;13.712;2023-08-31T08:54:36;1.90;;;1.15;;
59830;SDS011;45711;50.108;13.712;2023-08-31T08:57:03;2.10;;;1.30;;
59830;SDS011;45711;50.108;13.712;2023-08-31T08:59:29;2.00;;;1.15;;
59830;SDS011;45711;50.108;13.712;2023-08-31T09:01:55;3.30;;;1.15;;
59830;SDS011;45711;50.108;13.712;2023-08-31T09:04:21;1.77;;;1.10;;
59830;SDS011;45711;50.108;13.712;2023-08-31T09:06:48;3.15;;;1.33;;
59830;SDS011;45711;50.108;13.712;2023-08-31T09:09:15;2.45;;;1.30;;
59830;SDS011;45711;50.108;13.712;2023-08-31T09:11:42;3.70;;;1.20;;
59830;SDS011;45711;50.108;13.712;2023-08-31T09:14:14;5.15;;;1.45;;
59830;SDS011;45711;50.108;13.712;2023-08-31T09:16:42;6.10;;;1.58;;
59830;SDS011;45711;50.108;13.712;2023-08-31T09:19:17;3.28;;;1.30;;
59830;SDS011;45711;50.108;13.712;2023-08-31T09:21:44;2.80;;;1.30;;
59830;SDS011;45711;50.108;13.712;2023-08-31T09:24:12;1.90;;;1.10;;
59830;SDS011;45711;50.108;13.712;2023-08-31T09:26:38;2.20;;;1.30;;
59830;SDS011;45711;50.108;13.712;2023-08-31T09:29:04;6.32;;;1.83;;
59830;SDS011;45711;50.108;13.712;2023-08-31T09:31:30;3.38;;;1.45;;
59830;SDS011;45711;50.108;13.712;2023-08-31T09:33:56;2.83;;;1.42;;
59830;SDS011;45711;50.108;13.712;2023-08-31T09:36:21;4.32;;;1.40;;
59830;SDS011;45711;50.108;13.712;2023-08-31T09:38:48;6.10;;;1.38;;
59830;SDS011;45711;50.108;13.712;2023-08-31T09:41:15;1.85;;;0.90;;
59830;SDS011;45711;50.108;13.712;2023-08-31T09:43:40;2.38;;;1.23;;
59830;SDS011;45711;50.108;13.712;2023-08-31T09:46:06;2.47;;;1.20;;
59830;SDS011;45711;50.108;13.712;2023-08-31T09:48:33;3.03;;;1.40;;
59830;SDS011;45711;50.108;13.712;2023-08-31T09:51:03;3.25;;;1.30;;
59830;SDS011;45711;50.108;13.712;2023-08-31T09:53:30;2.55;;;1.35;;
59830;SDS011;45711;50.108;13.712;2023-08-31T09:55:56;6.28;;;1.35;;
59830;SDS011;45711;50.108;13.712;2023-08-31T09:58:24;2.42;;;1.10;;
59830;SDS011;45711;50.108;13.712;2023-08-31T10:00:50;16.20;;;2.90;;
59830;SDS011;45711;50.108;13.712;2023-08-31T10:03:17;3.63;;;1.38;;
59830;SDS011;45711;50.108;13.712;2023-08-31T10:05:43;5.32;;;1.20;;
59830;SDS011;45711;50.108;13.712;2023-08-31T10:08:10;7.15;;;1.30;;
59830;SDS011;45711;50.108;13.712;2023-08-31T10:10:36;5.28;;;1.45;;
59830;SDS011;45711;50.108;13.712;2023-08-31T10:13:03;3.20;;;1.10;;
59830;SDS011;45711;50.108;13.712;2023-08-31T10:15:31;3.40;;;1.30;;
59830;SDS011;45711;50.108;13.712;2023-08-31T10:17:59;8.60;;;1.95;;
59830;SDS011;45711;50.108;13.712;2023-08-31T10:20:25;8.63;;;1.85;;
59830;SDS011;45711;50.108;13.712;2023-08-31T10:22:53;6.65;;;2.30;;
59830;SDS011;45711;50.108;13.712;2023-08-31T10:25:19;3.67;;;1.50;;
59830;SDS011;45711;50.108;13.712;2023-08-31T10:27:44;2.38;;;1.08;;
59830;SDS011;45711;50.108;13.712;2023-08-31T10:30:24;8.10;;;1.85;;
59830;SDS011;45711;50.108;13.712;2023-08-31T10:36:08;5.93;;;1.40;;
59830;SDS011;45711;50.108;13.712;2023-08-31T10:38:35;2.45;;;1.10;;
59830;SDS011;45711;50.108;13.712;2023-08-31T10:41:01;3.83;;;1.33;;
59830;SDS011;45711;50.108;13.712;2023-08-31T10:43:45;3.17;;;1.40;;
59830;SDS011;45711;50.108;13.712;2023-08-31T10:46:14;3.55;;;1.40;;
59830;SDS011;45711;50.108;13.712;2023-08-31T10:48:51;3.78;;;1.30;;
59830;SDS011;45711;50.108;13.712;2023-08-31T10:51:21;3.45;;;1.20;;
59830;SDS011;45711;50.108;13.712;2023-08-31T10:53:47;5.07;;;1.52;;
59830;SDS011;45711;50.108;13.712;2023-08-31T10:56:15;3.55;;;1.52;;
59830;SDS011;45711;50.108;13.712;2023-08-31T10:58:41;3.03;;;1.30;;
59830;SDS011;45711;50.108;13.712;2023-08-31T11:01:07;3.65;;;1.30;;
59830;SDS011;45711;50.108;13.712;2023-08-31T11:03:32;3.92;;;1.30;;
59830;SDS011;45711;50.108;13.712;2023-08-31T11:06:19;2.53;;;1.38;;
59830;SDS011;45711;50.108;13.712;2023-08-31T11:08:46;3.03;;;1.20;;
59830;SDS011;45711;50.108;13.712;2023-08-31T11:11:12;1.98;;;1.40;;
59830;SDS011;45711;50.108;13.712;2023-08-31T11:13:37;2.97;;;1.30;;
59830;SDS011;45711;50.108;13.712;2023-08-31T11:16:03;3.75;;;1.20;;
59830;SDS011;45711;50.108;13.712;2023-08-31T11:18:29;2.47;;;1.10;;
59830;SDS011;45711;50.108;13.712;2023-08-31T11:20:55;3.00;;;1.30;;
59830;SDS011;45711;50.108;13.712;2023-08-31T11:23:23;2.70;;;1.13;;
59830;SDS011;45711;50.108;13.712;2023-08-31T11:25:50;2.92;;;1.30;;
59830;SDS011;45711;50.108;13.712;2023-08-31T11:28:16;4.82;;;1.63;;
59830;SDS011;45711;50.108;13.712;2023-08-31T11:30:41;6.45;;;1.50;;
59830;SDS011;45711;50.108;13.712;2023-08-31T11:33:09;1.60;;;1.00;;
59830;SDS011;45711;50.108;13.712;2023-08-31T11:35:36;5.03;;;1.23;;
59830;SDS011;45711;50.108;13.712;2023-08-31T11:38:05;1.85;;;1.20;;
59830;SDS011;45711;50.108;13.712;2023-08-31T11:40:32;7.80;;;1.48;;
59830;SDS011;45711;50.108;13.712;2023-08-31T11:42:58;2.65;;;1.20;;
59830;SDS011;45711;50.108;13.712;2023-08-31T11:45:28;2.78;;;1.10;;
59830;SDS011;45711;50.108;13.712;2023-08-31T11:47:55;4.35;;;1.88;;
59830;SDS011;45711;50.108;13.712;2023-08-31T11:50:22;6.57;;;1.88;;
59830;SDS011;45711;50.108;13.712;2023-08-31T11:52:48;2.45;;;1.40;;
59830;SDS011;45711;50.108;13.712;2023-08-31T11:55:15;4.45;;;1.90;;
59830;SDS011;45711;50.108;13.712;2023-08-31T11:57:48;6.18;;;1.35;;
59830;SDS011;45711;50.108;13.712;2023-08-31T12:00:16;3.78;;;1.23;;
59830;SDS011;45711;50.108;13.712;2023-08-31T12:02:42;2.42;;;1.30;;
59830;SDS011;45711;50.108;13.712;2023-08-31T12:05:07;4.05;;;1.45;;
59830;SDS011;45711;50.108;13.712;2023-08-31T12:07:38;3.78;;;1.20;;
59830;SDS011;45711;50.108;13.712;2023-08-31T12:10:06;1.88;;;1.08;;
59830;SDS011;45711;50.108;13.712;2023-08-31T12:12:32;2.03;;;1.08;;
59830;SDS011;45711;50.108;13.712;2023-08-31T12:15:01;2.15;;;1.20;;
59830;SDS011;45711;50.108;13.712;2023-08-31T12:17:29;4.03;;;1.25;;
59830;SDS011;45711;50.108;13.712;2023-08-31T12:20:01;3.92;;;1.10;;
59830;SDS011;45711;50.108;13.712;2023-08-31T12:22:29;1.85;;;1.00;;
59830;SDS011;45711;50.108;13.712;2023-08-31T12:24:54;3.13;;;1.40;;
59830;SDS011;45711;50.108;13.712;2023-08-31T12:27:20;3.28;;;1.20;;
59830;SDS011;45711;50.108;13.712;2023-08-31T12:29:46;2.28;;;1.20;;
59830;SDS011;45711;50.108;13.712;2023-08-31T12:32:20;2.40;;;1.20;;
59830;SDS011;45711;50.108;13.712;2023-08-31T12:34:46;3.78;;;1.05;;
59830;SDS011;45711;50.108;13.712;2023-08-31T12:37:11;8.63;;;1.10;;
59830;SDS011;45711;50.108;13.712;2023-08-31T12:39:37;3.40;;;1.15;;
59830;SDS011;45711;50.108;13.712;2023-08-31T12:42:03;2.50;;;1.10;;
59830;SDS011;45711;50.108;13.712;2023-08-31T12:44:29;2.45;;;1.27;;
59830;SDS011;45711;50.108;13.712;2023-08-31T12:46:55;10.80;;;1.00;;
59830;SDS011;45711;50.108;13.712;2023-08-31T12:49:22;2.08;;;0.90;;
59830;SDS011;45711;50.108;13.712;2023-08-31T12:51:48;4.22;;;1.27;;
59830;SDS011;45711;50.108;13.712;2023-08-31T12:54:15;2.42;;;1.05;;
59830;SDS011;45711;50.108;13.712;2023-08-31T12:56:41;1.58;;;0.90;;
59830;SDS011;45711;50.108;13.712;2023-08-31T12:59:06;2.33;;;0.93;;
59830;SDS011;45711;50.108;13.712;2023-08-31T13:01:35;1.75;;;0.90;;
59830;SDS011;45711;50.108;13.712;2023-08-31T13:04:01;2.08;;;0.93;;
59830;SDS011;45711;50.108;13.712;2023-08-31T13:06:28;1.55;;;1.00;;
59830;SDS011;45711;50.108;13.712;2023-08-31T13:08:54;4.90;;;0.90;;
59830;SDS011;45711;50.108;13.712;2023-08-31T13:11:20;3.30;;;0.90;;
59830;SDS011;45711;50.108;13.712;2023-08-31T13:13:48;1.85;;;0.90;;
59830;SDS011;45711;50.108;13.712;2023-08-31T13:16:16;3.15;;;1.00;;
59830;SDS011;45711;50.108;13.712;2023-08-31T13:18:41;1.73;;;1.00;;
59830;SDS011;45711;50.108;13.712;2023-08-31T13:21:07;1.40;;;1.00;;
59830;SDS011;45711;50.108;13.712;2023-08-31T13:23:34;1.98;;;1.10;;
59830;SDS011;45711;50.108;13.712;2023-08-31T13:25:59;2.50;;;1.00;;
59830;SDS011;45711;50.108;13.712;2023-08-31T13:28:25;3.70;;;1.20;;
59830;SDS011;45711;50.108;13.712;2023-08-31T13:30:54;4.90;;;1.10;;
59830;SDS011;45711;50.108;13.712;2023-08-31T13:33:22;2.60;;;1.13;;
59830;SDS011;45711;50.108;13.712;2023-08-31T13:35:47;1.20;;;0.85;;
59830;SDS011;45711;50.108;13.712;2023-08-31T13:38:13;2.67;;;1.20;;
59830;SDS011;45711;50.108;13.712;2023-08-31T13:40:40;2.55;;;1.10;;
59830;SDS011;45711;50.108;13.712;2023-08-31T13:43:05;3.92;;;1.20;;
59830;SDS011;45711;50.108;13.712;2023-08-31T13:45:31;3.28;;;1.35;;
59830;SDS011;45711;50.108;13.712;2023-08-31T13:47:57;2.10;;;1.35;;
59830;SDS011;45711;50.108;13.712;2023-08-31T13:50:24;2.65;;;1.33;;
59830;SDS011;45711;50.108;13.712;2023-08-31T13:52:50;2.08;;;1.00;;
59830;SDS011;45711;50.108;13.712;2023-08-31T13:55:16;2.60;;;1.20;;
59830;SDS011;45711;50.108;13.712;2023-08-31T13:57:43;2.38;;;1.38;;
59830;SDS011;45711;50.108;13.712;2023-08-31T14:00:09;2.78;;;1.20;;
59830;SDS011;45711;50.108;13.712;2023-08-31T14:02:36;5.10;;;1.65;;
59830;SDS011;45711;50.108;13.712;2023-08-31T14:05:02;5.82;;;1.27;;
59830;SDS011;45711;50.108;13.712;2023-08-31T14:07:28;2.47;;;1.30;;
59830;SDS011;45711;50.108;13.712;2023-08-31T14:09:56;2.67;;;1.13;;
59830;SDS011;45711;50.108;13.712;2023-08-31T14:12:23;2.38;;;1.25;;
59830;SDS011;45711;50.108;13.712;2023-08-31T14:14:51;3.72;;;2.10;;
59830;SDS011;45711;50.108;13.712;2023-08-31T14:17:16;2.00;;;1.02;;
59830;SDS011;45711;50.108;13.712;2023-08-31T14:19:42;1.83;;;1.40;;
59830;SDS011;45711;50.108;13.712;2023-08-31T14:22:08;3.80;;;1.50;;
59830;SDS011;45711;50.108;13.712;2023-08-31T14:24:35;2.75;;;1.30;;
59830;SDS011;45711;50.108;13.712;2023-08-31T14:27:02;2.20;;;1.50;;
59830;SDS011;45711;50.108;13.712;2023-08-31T14:29:28;4.43;;;2.40;;
59830;SDS011;45711;50.108;13.712;2023-08-31T14:31:55;6.90;;;3.05;;
59830;SDS011;45711;50.108;13.712;2023-08-31T14:34:21;3.50;;;1.88;;